Decoded Metar for KIPJ (LINCOLNTON in NC, USA) (IATA:IPJ) | Meteo·Mobile Aviation Weather
aviador You're here:

KIPJ Decoded Metar

LINCOLNTON in NC, USA
Report Time2019-04-19 18:20:00
UTC Time2019-04-19 18:30:29
Flight Rules mvfr MVFR
Wind150° at 04 kt
W.Decomp.*RWY 23: 1.1 kt HW 3.8 kt LCW
Visibility8047 m
Phenomena:Rain
Clouds:Broken 029 Hf
Broken 035 Hf
Overcast 040 Hf
Expected CloudBase > 400 ft AGL from Temp-Dew spread
Ceiling2,900 ft
Temp20°C (ISA +7)
Dew Point19°C (94% RH)
QNH1001 hPa
Density Alt2,365 ft
Elevation876 ft
Report Wrong Elevation
Raw Report
METAR KIPJ 191820Z AUTO 15004KT 5SM RA BKN029 BKN035 OVC040 20/19 A2955
RMK AO2 P0003 T02020190=

Extra information for KIPJ:More info

Metar Taf Metar & Taf Last 4 Metars F.Rules Stats Wind Profile Meteogram Temp Stats Airport Information Weather charts Add Link Nearby VenuesMetar ALERT Operation Metar Decoded Social comments

AIRNAV info for KIPJ